createdAt,value
2018-03-14T00:01:37.748Z,94468.34
2018-03-14T00:04:04.235Z,94471.80
2018-03-14T00:06:30.709Z,94469.92
2018-03-14T00:08:57.180Z,94466.46
2018-03-14T00:11:23.680Z,94475.14
2018-03-14T00:13:50.147Z,94470.23
2018-03-14T00:16:16.633Z,94469.86
2018-03-14T00:18:43.107Z,94472.36
2018-03-14T00:21:09.580Z,94472.67
2018-03-14T00:23:36.068Z,94478.20
2018-03-14T00:26:02.546Z,94468.30
2018-03-14T00:28:29.044Z,94471.72
2018-03-14T00:30:55.514Z,94474.70
2018-03-14T00:33:22.003Z,94469.92
2018-03-14T00:35:48.505Z,94468.84
2018-03-14T00:38:14.995Z,94463.33
2018-03-14T00:40:41.472Z,94464.66
2018-03-14T00:43:07.959Z,94464.58
2018-03-14T00:45:34.431Z,94457.52
2018-03-14T00:48:01.725Z,94457.84
2018-03-14T00:50:28.197Z,94450.34
2018-03-14T00:52:54.723Z,94449.83
2018-03-14T00:55:21.195Z,94450.20
2018-03-14T00:57:47.679Z,94444.34
2018-03-14T01:00:14.210Z,94439.44
2018-03-14T01:02:40.698Z,94444.92
2018-03-14T01:05:07.168Z,94454.51
2018-03-14T01:07:33.650Z,94445.42
2018-03-14T01:10:00.127Z,94450.63
2018-03-14T01:12:26.611Z,94452.19
2018-03-14T01:14:53.077Z,94451.54
2018-03-14T01:17:19.566Z,94451.23
2018-03-14T01:19:46.041Z,94447.22
2018-03-14T01:22:12.554Z,94451.75
2018-03-14T01:24:39.030Z,94446.58
2018-03-14T01:27:05.496Z,94441.94
2018-03-14T01:29:31.977Z,94445.88
2018-03-14T01:31:58.449Z,94450.50
2018-03-14T01:34:24.990Z,94449.81
2018-03-14T01:36:51.431Z,94445.13
2018-03-14T01:39:17.909Z,94447.80
2018-03-14T01:41:44.395Z,94447.83
2018-03-14T01:44:10.871Z,94437.03
2018-03-14T01:46:37.356Z,94438.92
2018-03-14T01:49:03.871Z,94439.27
2018-03-14T01:51:30.342Z,94436.07
2018-03-14T01:53:56.817Z,94430.15
2018-03-14T01:56:23.311Z,94434.82
2018-03-14T01:58:49.814Z,94431.69
2018-03-14T02:01:16.299Z,94439.63
2018-03-14T02:03:42.768Z,94434.95
2018-03-14T02:06:09.275Z,94441.70
2018-03-14T02:08:35.741Z,94444.47
2018-03-14T02:11:02.230Z,94446.30
2018-03-14T02:13:28.706Z,94442.91
2018-03-14T02:15:55.192Z,94441.70
2018-03-14T02:18:21.665Z,94445.28
2018-03-14T02:20:48.139Z,94443.63
2018-03-14T02:23:14.614Z,94452.04
2018-03-14T02:25:41.082Z,94454.39
2018-03-14T02:28:07.549Z,94455.59
2018-03-14T02:30:34.171Z,94461.83
2018-03-14T02:33:00.652Z,94449.43
2018-03-14T02:35:27.116Z,94446.81
2018-03-14T02:37:53.589Z,94450.59
2018-03-14T02:40:20.051Z,94444.37
2018-03-14T02:42:46.553Z,94447.63
2018-03-14T02:45:13.036Z,94455.27
2018-03-14T02:47:39.536Z,94452.13
2018-03-14T02:50:06.045Z,94451.18
2018-03-14T02:52:32.517Z,94454.16
2018-03-14T02:54:59.011Z,94460.92
2018-03-14T02:57:25.481Z,94464.09
2018-03-14T02:59:51.970Z,94458.61
2018-03-14T03:02:18.442Z,94462.62
2018-03-14T03:04:44.931Z,94465.49
2018-03-14T03:07:11.429Z,94470.56
2018-03-14T03:09:37.887Z,94463.45
2018-03-14T03:12:04.402Z,94458.40
2018-03-14T03:14:30.852Z,94470.07
2018-03-14T03:16:57.350Z,94469.52
2018-03-14T03:19:23.835Z,94475.68
2018-03-14T03:21:50.307Z,94474.25
2018-03-14T03:24:16.788Z,94469.23
2018-03-14T03:26:43.266Z,94475.91
2018-03-14T03:29:09.755Z,94467.46
2018-03-14T03:31:36.233Z,94471.27
2018-03-14T03:34:02.714Z,94474.31
2018-03-14T03:36:29.191Z,94467.03
2018-03-14T03:38:55.655Z,94468.16
2018-03-14T03:41:22.122Z,94468.31
2018-03-14T03:43:48.591Z,94473.39
2018-03-14T03:46:15.062Z,94470.83
2018-03-14T03:48:41.584Z,94468.69
2018-03-14T03:51:08.060Z,94470.22
2018-03-14T03:53:34.536Z,94470.95
2018-03-14T03:56:01.007Z,94469.33
2018-03-14T03:58:27.472Z,94467.34
2018-03-14T04:00:53.988Z,94461.08
2018-03-14T04:03:20.472Z,94469.03
2018-03-14T04:05:46.942Z,94467.53
2018-03-14T04:08:13.430Z,94470.72
2018-03-14T04:10:39.902Z,94469.53
2018-03-14T04:13:06.392Z,94473.83
2018-03-14T04:15:32.869Z,94466.63
2018-03-14T04:17:59.390Z,94472.92
2018-03-14T04:20:25.862Z,94473.24
2018-03-14T04:22:52.347Z,94471.97
2018-03-14T04:25:18.867Z,94475.45
2018-03-14T04:27:45.336Z,94475.33
2018-03-14T04:30:11.833Z,94478.96
2018-03-14T04:32:38.319Z,94472.92
2018-03-14T04:35:04.800Z,94473.24
2018-03-14T04:37:31.284Z,94477.19
2018-03-14T04:39:57.752Z,94475.05
2018-03-14T04:42:24.232Z,94478.52
2018-03-14T04:44:50.707Z,94480.97
2018-03-14T04:47:17.179Z,94480.84
2018-03-14T04:49:43.660Z,94480.84
2018-03-14T04:52:10.148Z,94484.27
2018-03-14T04:54:36.628Z,94477.86
2018-03-14T04:57:03.115Z,94484.97
2018-03-14T04:59:29.595Z,94484.63
2018-03-14T05:01:56.083Z,94482.70
2018-03-14T05:04:22.563Z,94488.16
2018-03-14T05:06:49.035Z,94486.07
2018-03-14T05:09:15.509Z,94490.98
2018-03-14T05:11:41.998Z,94492.38
2018-03-14T05:14:08.479Z,94501.95
2018-03-14T05:16:34.999Z,94503.28
2018-03-14T05:19:01.472Z,94499.45
